sensor_id;sensor_type;location;lat;lon;timestamp;temperature;humidity
5419;DHT22;2732;52.092;11.556;2023-08-01T00:04:47;18.10;99.90
5419;DHT22;2732;52.092;11.556;2023-08-01T00:09:47;18.10;99.90
5419;DHT22;2732;52.092;11.556;2023-08-01T00:14:48;18.10;99.90
5419;DHT22;2732;52.092;11.556;2023-08-01T00:19:48;18.10;99.90
5419;DHT22;2732;52.092;11.556;2023-08-01T00:24:49;18.00;99.90
5419;DHT22;2732;52.092;11.556;2023-08-01T00:29:50;18.00;99.90
5419;DHT22;2732;52.092;11.556;2023-08-01T00:34:50;18.00;99.90
5419;DHT22;2732;52.092;11.556;2023-08-01T00:39:52;18.00;99.90
5419;DHT22;2732;52.092;11.556;2023-08-01T00:44:52;17.90;99.90
5419;DHT22;2732;52.092;11.556;2023-08-01T00:49:54;17.90;99.90
5419;DHT22;2732;52.092;11.556;2023-08-01T00:54:56;17.90;99.90
5419;DHT22;2732;52.092;11.556;2023-08-01T00:59:57;17.90;99.90
5419;DHT22;2732;52.092;11.556;2023-08-01T01:04:58;17.80;99.90
5419;DHT22;2732;52.092;11.556;2023-08-01T01:09:59;17.80;99.90
5419;DHT22;2732;52.092;11.556;2023-08-01T01:15:00;17.80;99.90
5419;DHT22;2732;52.092;11.556;2023-08-01T01:20:00;17.70;99.90
5419;DHT22;2732;52.092;11.556;2023-08-01T01:25:01;17.70;99.90
5419;DHT22;2732;52.092;11.556;2023-08-01T01:30:03;17.70;99.90
5419;DHT22;2732;52.092;11.556;2023-08-01T01:35:04;17.60;99.90
5419;DHT22;2732;52.092;11.556;2023-08-01T01:40:06;17.60;99.90
5419;DHT22;2732;52.092;11.556;2023-08-01T01:45:07;17.60;99.90
5419;DHT22;2732;52.092;11.556;2023-08-01T01:50:08;17.60;99.90
5419;DHT22;2732;52.092;11.556;2023-08-01T01:55:09;17.50;99.90
5419;DHT22;2732;52.092;11.556;2023-08-01T02:00:12;17.50;99.90
5419;DHT22;2732;52.092;11.556;2023-08-01T02:05:12;17.50;99.90
5419;DHT22;2732;52.092;11.556;2023-08-01T02:10:13;17.50;99.90
5419;DHT22;2732;52.092;11.556;2023-08-01T02:15:14;17.50;99.90
5419;DHT22;2732;52.092;11.556;2023-08-01T02:20:14;17.50;99.90
5419;DHT22;2732;52.092;11.556;2023-08-01T02:25:17;17.50;99.90
5419;DHT22;2732;52.092;11.556;2023-08-01T02:30:18;17.40;99.90
5419;DHT22;2732;52.092;11.556;2023-08-01T02:35:19;17.50;99.90
5419;DHT22;2732;52.092;11.556;2023-08-01T02:40:20;17.40;99.90
5419;DHT22;2732;52.092;11.556;2023-08-01T02:45:20;17.40;99.90
5419;DHT22;2732;52.092;11.556;2023-08-01T02:50:21;17.40;99.90
5419;DHT22;2732;52.092;11.556;2023-08-01T02:55:22;17.40;99.90
5419;DHT22;2732;52.092;11.556;2023-08-01T03:00:23;17.40;99.90
5419;DHT22;2732;52.092;11.556;2023-08-01T03:05:24;17.40;99.90
5419;DHT22;2732;52.092;11.556;2023-08-01T03:10:24;17.40;99.90
5419;DHT22;2732;52.092;11.556;2023-08-01T03:15:25;17.40;99.90
5419;DHT22;2732;52.092;11.556;2023-08-01T03:20:26;17.40;99.90
5419;DHT22;2732;52.092;11.556;2023-08-01T03:25:26;17.50;99.90
5419;DHT22;2732;52.092;11.556;2023-08-01T03:30:27;17.40;99.90
5419;DHT22;2732;52.092;11.556;2023-08-01T03:35:28;17.40;99.90
5419;DHT22;2732;52.092;11.556;2023-08-01T03:40:28;17.40;99.90
5419;DHT22;2732;52.092;11.556;2023-08-01T03:45:29;17.40;99.90
5419;DHT22;2732;52.092;11.556;2023-08-01T03:50:30;17.40;99.90
5419;DHT22;2732;52.092;11.556;2023-08-01T03:55:30;17.40;99.90
5419;DHT22;2732;52.092;11.556;2023-08-01T04:00:31;17.40;99.90
5419;DHT22;2732;52.092;11.556;2023-08-01T04:05:35;17.40;99.90
5419;DHT22;2732;52.092;11.556;2023-08-01T04:10:38;17.40;99.90
5419;DHT22;2732;52.092;11.556;2023-08-01T04:15:38;17.40;99.90
5419;DHT22;2732;52.092;11.556;2023-08-01T04:20:39;17.40;99.90
5419;DHT22;2732;52.092;11.556;2023-08-01T04:25:41;17.40;99.90
5419;DHT22;2732;52.092;11.556;2023-08-01T04:30:49;17.40;99.90
5419;DHT22;2732;52.092;11.556;2023-08-01T04:35:57;17.40;99.90
5419;DHT22;2732;52.092;11.556;2023-08-01T04:40:58;17.40;99.90
5419;DHT22;2732;52.092;11.556;2023-08-01T04:45:59;17.40;99.90
5419;DHT22;2732;52.092;11.556;2023-08-01T04:51:00;17.40;99.90
5419;DHT22;2732;52.092;11.556;2023-08-01T04:56:01;17.40;99.90
5419;DHT22;2732;52.092;11.556;2023-08-01T05:01:01;17.40;99.90
5419;DHT22;2732;52.092;11.556;2023-08-01T05:06:02;17.40;99.90
5419;DHT22;2732;52.092;11.556;2023-08-01T05:11:03;17.50;99.90
5419;DHT22;2732;52.092;11.556;2023-08-01T05:16:04;17.50;99.90
5419;DHT22;2732;52.092;11.556;2023-08-01T05:21:04;17.50;99.90
5419;DHT22;2732;52.092;11.556;2023-08-01T05:26:05;17.50;99.90
5419;DHT22;2732;52.092;11.556;2023-08-01T05:31:06;17.50;99.90
5419;DHT22;2732;52.092;11.556;2023-08-01T05:36:06;17.50;99.90
5419;DHT22;2732;52.092;11.556;2023-08-01T05:41:07;17.60;99.90
5419;DHT22;2732;52.092;11.556;2023-08-01T05:46:08;17.60;99.90
5419;DHT22;2732;52.092;11.556;2023-08-01T05:51:09;17.70;99.90
5419;DHT22;2732;52.092;11.556;2023-08-01T05:56:09;17.80;99.90
5419;DHT22;2732;52.092;11.556;2023-08-01T06:01:11;18.00;99.90
5419;DHT22;2732;52.092;11.556;2023-08-01T06:06:12;18.10;99.90
5419;DHT22;2732;52.092;11.556;2023-08-01T06:11:13;18.20;99.90
5419;DHT22;2732;52.092;11.556;2023-08-01T06:16:13;18.30;99.90
5419;DHT22;2732;52.092;11.556;2023-08-01T06:21:14;18.40;99.90
5419;DHT22;2732;52.092;11.556;2023-08-01T06:26:14;18.50;99.90
5419;DHT22;2732;52.092;11.556;2023-08-01T06:31:19;18.50;99.90
5419;DHT22;2732;52.092;11.556;2023-08-01T06:36:20;18.60;99.90
5419;DHT22;2732;52.092;11.556;2023-08-01T06:41:21;18.80;99.90
5419;DHT22;2732;52.092;11.556;2023-08-01T06:46:21;18.80;99.90
5419;DHT22;2732;52.092;11.556;2023-08-01T06:51:22;18.90;99.90
5419;DHT22;2732;52.092;11.556;2023-08-01T06:56:23;19.10;99.90
5419;DHT22;2732;52.092;11.556;2023-08-01T07:01:23;19.20;99.90
5419;DHT22;2732;52.092;11.556;2023-08-01T07:06:24;19.40;99.90
5419;DHT22;2732;52.092;11.556;2023-08-01T07:11:25;19.50;99.90
5419;DHT22;2732;52.092;11.556;2023-08-01T07:16:25;19.60;99.90
5419;DHT22;2732;52.092;11.556;2023-08-01T07:21:26;19.60;99.90
5419;DHT22;2732;52.092;11.556;2023-08-01T07:26:27;19.50;99.90
5419;DHT22;2732;52.092;11.556;2023-08-01T07:31:29;19.50;99.90
5419;DHT22;2732;52.092;11.556;2023-08-01T07:36:30;19.60;99.90
5419;DHT22;2732;52.092;11.556;2023-08-01T07:41:30;19.80;99.90
5419;DHT22;2732;52.092;11.556;2023-08-01T07:46:33;19.90;99.90
5419;DHT22;2732;52.092;11.556;2023-08-01T07:51:34;19.80;99.90
5419;DHT22;2732;52.092;11.556;2023-08-01T07:56:34;19.70;99.90
5419;DHT22;2732;52.092;11.556;2023-08-01T08:01:35;19.50;99.90
5419;DHT22;2732;52.092;11.556;2023-08-01T08:06:39;19.40;99.90
5419;DHT22;2732;52.092;11.556;2023-08-01T08:11:40;19.20;99.90
5419;DHT22;2732;52.092;11.556;2023-08-01T08:16:41;19.00;99.90
5419;DHT22;2732;52.092;11.556;2023-08-01T08:21:42;18.90;99.90
5419;DHT22;2732;52.092;11.556;2023-08-01T08:26:42;18.70;99.90
5419;DHT22;2732;52.092;11.556;2023-08-01T08:31:43;18.60;99.90
5419;DHT22;2732;52.092;11.556;2023-08-01T08:36:45;18.50;99.90
5419;DHT22;2732;52.092;11.556;2023-08-01T08:41:48;18.40;99.90
5419;DHT22;2732;52.092;11.556;2023-08-01T08:46:52;18.30;99.90
5419;DHT22;2732;52.092;11.556;2023-08-01T08:51:54;18.30;99.90
5419;DHT22;2732;52.092;11.556;2023-08-01T08:56:55;18.30;99.90
5419;DHT22;2732;52.092;11.556;2023-08-01T09:01:56;18.40;99.90
5419;DHT22;2732;52.092;11.556;2023-08-01T09:07:02;18.50;99.90
5419;DHT22;2732;52.092;11.556;2023-08-01T09:12:09;18.60;99.90
5419;DHT22;2732;52.092;11.556;2023-08-01T09:17:10;18.70;99.90
5419;DHT22;2732;52.092;11.556;2023-08-01T09:22:13;18.70;99.90
5419;DHT22;2732;52.092;11.556;2023-08-01T09:27:14;18.90;99.90
5419;DHT22;2732;52.092;11.556;2023-08-01T09:32:15;18.90;99.90
5419;DHT22;2732;52.092;11.556;2023-08-01T09:37:15;18.90;99.90
5419;DHT22;2732;52.092;11.556;2023-08-01T09:42:19;19.00;99.90
5419;DHT22;2732;52.092;11.556;2023-08-01T09:47:20;18.90;99.90
5419;DHT22;2732;52.092;11.556;2023-08-01T09:52:29;18.80;99.90
5419;DHT22;2732;52.092;11.556;2023-08-01T09:57:30;18.70;99.90
5419;DHT22;2732;52.092;11.556;2023-08-01T10:02:32;18.80;99.90
5419;DHT22;2732;52.092;11.556;2023-08-01T10:07:35;19.10;99.90
5419;DHT22;2732;52.092;11.556;2023-08-01T10:12:44;19.40;99.90
5419;DHT22;2732;52.092;11.556;2023-08-01T10:17:45;19.80;99.90
5419;DHT22;2732;52.092;11.556;2023-08-01T10:22:48;20.20;99.90
5419;DHT22;2732;52.092;11.556;2023-08-01T10:28:01;20.80;99.90
5419;DHT22;2732;52.092;11.556;2023-08-01T10:33:02;21.70;99.90
5419;DHT22;2732;52.092;11.556;2023-08-01T10:38:10;22.50;99.90
5419;DHT22;2732;52.092;11.556;2023-08-01T10:43:22;22.90;99.90
5419;DHT22;2732;52.092;11.556;2023-08-01T10:48:23;23.40;99.90
5419;DHT22;2732;52.092;11.556;2023-08-01T10:53:23;23.60;99.90
5419;DHT22;2732;52.092;11.556;2023-08-01T10:58:27;23.50;99.90
5419;DHT22;2732;52.092;11.556;2023-08-01T11:03:35;24.30;99.90
5419;DHT22;2732;52.092;11.556;2023-08-01T11:08:41;24.40;99.90
5419;DHT22;2732;52.092;11.556;2023-08-01T11:13:52;25.00;99.90
5419;DHT22;2732;52.092;11.556;2023-08-01T11:18:53;25.30;99.90
5419;DHT22;2732;52.092;11.556;2023-08-01T11:23:54;25.60;99.90
5419;DHT22;2732;52.092;11.556;2023-08-01T11:28:55;25.60;99.90
5419;DHT22;2732;52.092;11.556;2023-08-01T11:33:56;26.10;99.90
5419;DHT22;2732;52.092;11.556;2023-08-01T11:39:00;25.20;99.90
5419;DHT22;2732;52.092;11.556;2023-08-01T11:44:03;25.60;99.90
5419;DHT22;2732;52.092;11.556;2023-08-01T11:49:08;26.40;99.90
5419;DHT22;2732;52.092;11.556;2023-08-01T11:54:09;25.60;99.90
5419;DHT22;2732;52.092;11.556;2023-08-01T11:59:13;24.90;99.90
5419;DHT22;2732;52.092;11.556;2023-08-01T12:04:26;25.20;99.90
5419;DHT22;2732;52.092;11.556;2023-08-01T12:09:31;26.20;99.90
5419;DHT22;2732;52.092;11.556;2023-08-01T12:14:32;27.10;99.90
5419;DHT22;2732;52.092;11.556;2023-08-01T12:19:33;27.60;99.40
5419;DHT22;2732;52.092;11.556;2023-08-01T12:24:34;27.80;98.00
5419;DHT22;2732;52.092;11.556;2023-08-01T12:29:40;28.40;96.80
5419;DHT22;2732;52.092;11.556;2023-08-01T12:34:41;28.80;96.10
5419;DHT22;2732;52.092;11.556;2023-08-01T12:39:41;28.60;95.10
5419;DHT22;2732;52.092;11.556;2023-08-01T12:44:42;29.10;94.40
5419;DHT22;2732;52.092;11.556;2023-08-01T12:49:43;28.90;93.50
5419;DHT22;2732;52.092;11.556;2023-08-01T12:54:46;27.80;94.40
5419;DHT22;2732;52.092;11.556;2023-08-01T12:59:46;27.00;95.40
5419;DHT22;2732;52.092;11.556;2023-08-01T13:04:48;27.50;95.70
5419;DHT22;2732;52.092;11.556;2023-08-01T13:09:49;28.40;94.60
5419;DHT22;2732;52.092;11.556;2023-08-01T13:14:50;29.10;93.10
5419;DHT22;2732;52.092;11.556;2023-08-01T13:19:50;29.60;91.50
5419;DHT22;2732;52.092;11.556;2023-08-01T13:24:51;29.80;91.10
5419;DHT22;2732;52.092;11.556;2023-08-01T13:29:52;30.00;90.00
5419;DHT22;2732;52.092;11.556;2023-08-01T13:34:54;30.10;85.60
5419;DHT22;2732;52.092;11.556;2023-08-01T13:39:56;30.10;85.30
5419;DHT22;2732;52.092;11.556;2023-08-01T13:45:01;29.30;84.60
5419;DHT22;2732;52.092;11.556;2023-08-01T13:50:02;29.10;83.40
5419;DHT22;2732;52.092;11.556;2023-08-01T13:55:03;29.30;81.40
5419;DHT22;2732;52.092;11.556;2023-08-01T14:00:05;29.20;81.30
5419;DHT22;2732;52.092;11.556;2023-08-01T14:05:07;28.20;82.50
5419;DHT22;2732;52.092;11.556;2023-08-01T14:10:08;27.30;84.50
5419;DHT22;2732;52.092;11.556;2023-08-01T14:15:10;26.50;86.00
5419;DHT22;2732;52.092;11.556;2023-08-01T14:20:11;25.90;90.60
5419;DHT22;2732;52.092;11.556;2023-08-01T14:25:12;25.50;91.90
5419;DHT22;2732;52.092;11.556;2023-08-01T14:30:12;25.60;92.00
5419;DHT22;2732;52.092;11.556;2023-08-01T14:35:13;25.70;92.00
5419;DHT22;2732;52.092;11.556;2023-08-01T14:40:13;26.10;91.50
5419;DHT22;2732;52.092;11.556;2023-08-01T14:45:14;26.30;91.00
5419;DHT22;2732;52.092;11.556;2023-08-01T14:50:15;26.20;91.00
5419;DHT22;2732;52.092;11.556;2023-08-01T14:55:16;26.70;91.30
5419;DHT22;2732;52.092;11.556;2023-08-01T15:00:28;26.50;91.00
5419;DHT22;2732;52.092;11.556;2023-08-01T15:05:28;26.20;91.20
5419;DHT22;2732;52.092;11.556;2023-08-01T15:10:29;25.80;91.40
5419;DHT22;2732;52.092;11.556;2023-08-01T15:15:38;25.40;91.50
5419;DHT22;2732;52.092;11.556;2023-08-01T15:20:41;25.10;91.90
5419;DHT22;2732;52.092;11.556;2023-08-01T15:25:52;24.70;92.20
5419;DHT22;2732;52.092;11.556;2023-08-01T15:31:07;24.70;92.50
5419;DHT22;2732;52.092;11.556;2023-08-01T15:36:08;25.20;92.50
5419;DHT22;2732;52.092;11.556;2023-08-01T15:41:10;25.40;92.20
5419;DHT22;2732;52.092;11.556;2023-08-01T15:46:11;25.20;92.00
5419;DHT22;2732;52.092;11.556;2023-08-01T15:51:11;25.10;92.20
5419;DHT22;2732;52.092;11.556;2023-08-01T15:56:13;25.00;92.00
5419;DHT22;2732;52.092;11.556;2023-08-01T16:01:13;24.60;92.10
5419;DHT22;2732;52.092;11.556;2023-08-01T16:06:14;24.20;92.10
5419;DHT22;2732;52.092;11.556;2023-08-01T16:11:15;23.90;92.50
5419;DHT22;2732;52.092;11.556;2023-08-01T16:16:16;23.60;92.80
5419;DHT22;2732;52.092;11.556;2023-08-01T16:21:16;23.40;93.30
5419;DHT22;2732;52.092;11.556;2023-08-01T16:26:18;23.10;93.80
5419;DHT22;2732;52.092;11.556;2023-08-01T16:31:19;22.90;94.40
5419;DHT22;2732;52.092;11.556;2023-08-01T16:36:20;22.70;94.70
5419;DHT22;2732;52.092;11.556;2023-08-01T16:41:21;23.10;94.80
5419;DHT22;2732;52.092;11.556;2023-08-01T16:46:22;23.60;94.90
5419;DHT22;2732;52.092;11.556;2023-08-01T16:51:23;23.90;95.00
5419;DHT22;2732;52.092;11.556;2023-08-01T16:56:23;24.10;95.10
5419;DHT22;2732;52.092;11.556;2023-08-01T17:01:24;24.30;95.10
5419;DHT22;2732;52.092;11.556;2023-08-01T17:06:25;24.50;94.90
5419;DHT22;2732;52.092;11.556;2023-08-01T17:11:25;24.60;94.90
5419;DHT22;2732;52.092;11.556;2023-08-01T17:16:26;24.70;94.60
5419;DHT22;2732;52.092;11.556;2023-08-01T17:21:27;24.70;94.60
5419;DHT22;2732;52.092;11.556;2023-08-01T17:26:27;24.70;94.70
5419;DHT22;2732;52.092;11.556;2023-08-01T17:31:28;24.70;94.20
5419;DHT22;2732;52.092;11.556;2023-08-01T17:36:32;24.70;93.90
5419;DHT22;2732;52.092;11.556;2023-08-01T17:41:33;24.60;93.50
5419;DHT22;2732;52.092;11.556;2023-08-01T17:46:34;24.50;93.60
5419;DHT22;2732;52.092;11.556;2023-08-01T17:51:34;24.40;93.60
5419;DHT22;2732;52.092;11.556;2023-08-01T17:56:35;24.00;93.40
5419;DHT22;2732;52.092;11.556;2023-08-01T18:01:40;23.70;93.40
5419;DHT22;2732;52.092;11.556;2023-08-01T18:06:48;23.40;93.60
5419;DHT22;2732;52.092;11.556;2023-08-01T18:11:50;23.00;93.80
5419;DHT22;2732;52.092;11.556;2023-08-01T18:16:50;22.70;94.30
5419;DHT22;2732;52.092;11.556;2023-08-01T18:21:52;22.40;94.80
5419;DHT22;2732;52.092;11.556;2023-08-01T18:26:53;22.20;95.20
5419;DHT22;2732;52.092;11.556;2023-08-01T18:31:54;21.90;95.50
5419;DHT22;2732;52.092;11.556;2023-08-01T18:36:54;21.60;95.90
5419;DHT22;2732;52.092;11.556;2023-08-01T18:41:55;21.40;96.20
5419;DHT22;2732;52.092;11.556;2023-08-01T18:46:56;21.20;96.40
5419;DHT22;2732;52.092;11.556;2023-08-01T18:51:56;21.00;96.70
5419;DHT22;2732;52.092;11.556;2023-08-01T18:56:57;20.70;97.00
5419;DHT22;2732;52.092;11.556;2023-08-01T19:01:58;20.50;97.20
5419;DHT22;2732;52.092;11.556;2023-08-01T19:07:01;20.30;97.40
5419;DHT22;2732;52.092;11.556;2023-08-01T19:12:06;20.20;97.60
5419;DHT22;2732;52.092;11.556;2023-08-01T19:17:07;20.00;97.80
5419;DHT22;2732;52.092;11.556;2023-08-01T19:22:08;19.90;98.00
5419;DHT22;2732;52.092;11.556;2023-08-01T19:27:08;19.70;98.20
5419;DHT22;2732;52.092;11.556;2023-08-01T19:32:09;19.50;98.70
5419;DHT22;2732;52.092;11.556;2023-08-01T19:37:10;19.30;99.50
5419;DHT22;2732;52.092;11.556;2023-08-01T19:42:10;19.20;99.50
5419;DHT22;2732;52.092;11.556;2023-08-01T19:47:11;19.00;99.70
5419;DHT22;2732;52.092;11.556;2023-08-01T19:52:12;18.90;99.90
5419;DHT22;2732;52.092;11.556;2023-08-01T19:57:13;18.90;99.90
5419;DHT22;2732;52.092;11.556;2023-08-01T20:02:14;18.80;99.90
5419;DHT22;2732;52.092;11.556;2023-08-01T20:07:15;18.80;99.90
5419;DHT22;2732;52.092;11.556;2023-08-01T20:12:16;18.70;99.90
5419;DHT22;2732;52.092;11.556;2023-08-01T20:17:17;18.70;99.90
5419;DHT22;2732;52.092;11.556;2023-08-01T20:22:17;18.60;99.90
5419;DHT22;2732;52.092;11.556;2023-08-01T20:27:22;18.60;99.90
5419;DHT22;2732;52.092;11.556;2023-08-01T20:32:23;18.50;99.90
5419;DHT22;2732;52.092;11.556;2023-08-01T20:37:23;18.40;99.90
5419;DHT22;2732;52.092;11.556;2023-08-01T20:42:24;18.40;99.90
5419;DHT22;2732;52.092;11.556;2023-08-01T20:47:24;18.30;99.90
5419;DHT22;2732;52.092;11.556;2023-08-01T20:52:25;18.20;99.90
5419;DHT22;2732;52.092;11.556;2023-08-01T20:57:26;18.10;99.90
5419;DHT22;2732;52.092;11.556;2023-08-01T21:02:26;18.00;99.90
5419;DHT22;2732;52.092;11.556;2023-08-01T21:07:28;17.90;99.90
5419;DHT22;2732;52.092;11.556;2023-08-01T21:12:28;17.80;99.90
5419;DHT22;2732;52.092;11.556;2023-08-01T21:17:29;17.80;99.90
5419;DHT22;2732;52.092;11.556;2023-08-01T21:22:30;17.70;99.90
5419;DHT22;2732;52.092;11.556;2023-08-01T21:27:30;17.60;99.90
5419;DHT22;2732;52.092;11.556;2023-08-01T21:32:31;17.60;99.90
5419;DHT22;2732;52.092;11.556;2023-08-01T21:37:32;17.50;99.90
5419;DHT22;2732;52.092;11.556;2023-08-01T21:42:32;17.50;99.90
5419;DHT22;2732;52.092;11.556;2023-08-01T21:47:33;17.40;99.90
5419;DHT22;2732;52.092;11.556;2023-08-01T21:52:35;17.40;99.90
5419;DHT22;2732;52.092;11.556;2023-08-01T21:57:35;17.30;99.90
5419;DHT22;2732;52.092;11.556;2023-08-01T22:02:37;17.30;99.90
5419;DHT22;2732;52.092;11.556;2023-08-01T22:07:39;17.20;99.90
5419;DHT22;2732;52.092;11.556;2023-08-01T22:12:40;17.20;99.90
5419;DHT22;2732;52.092;11.556;2023-08-01T22:17:42;17.20;99.90
5419;DHT22;2732;52.092;11.556;2023-08-01T22:22:43;17.10;99.90
5419;DHT22;2732;52.092;11.556;2023-08-01T22:27:44;17.10;99.90
5419;DHT22;2732;52.092;11.556;2023-08-01T22:32:44;17.10;99.90
5419;DHT22;2732;52.092;11.556;2023-08-01T22:37:45;17.00;99.90
5419;DHT22;2732;52.092;11.556;2023-08-01T22:42:46;17.00;99.90
5419;DHT22;2732;52.092;11.556;2023-08-01T22:47:51;17.00;99.90
5419;DHT22;2732;52.092;11.556;2023-08-01T22:52:52;17.00;99.90
5419;DHT22;2732;52.092;11.556;2023-08-01T22:57:52;16.90;99.90
5419;DHT22;2732;52.092;11.556;2023-08-01T23:02:53;16.90;99.90
5419;DHT22;2732;52.092;11.556;2023-08-01T23:07:54;16.90;99.90
5419;DHT22;2732;52.092;11.556;2023-08-01T23:12:57;16.90;99.90
5419;DHT22;2732;52.092;11.556;2023-08-01T23:17:57;16.80;99.90
5419;DHT22;2732;52.092;11.556;2023-08-01T23:23:00;16.80;99.90
5419;DHT22;2732;52.092;11.556;2023-08-01T23:28:01;16.80;99.90
5419;DHT22;2732;52.092;11.556;2023-08-01T23:33:02;16.70;99.90
5419;DHT22;2732;52.092;11.556;2023-08-01T23:38:04;16.80;99.90
5419;DHT22;2732;52.092;11.556;2023-08-01T23:43:04;16.80;99.90
5419;DHT22;2732;52.092;11.556;2023-08-01T23:48:07;16.80;99.90
5419;DHT22;2732;52.092;11.556;2023-08-01T23:53:07;16.80;99.90
5419;DHT22;2732;52.092;11.556;2023-08-01T23:58:08;16.80;99.90
